• Join FlightAware (Why Join?)
  • Login
  • US Flag 
07:40PM EDT


 

Airport Tracker/Info


-or-


 

Live Flight TrackerFlight Track Log ✈ SWA1464 ✈ 05-May-2013 ✈ KCRP - KHOU

Flight Track Log - Related Links

Times and Time Zones

All times are in EDT time to prevent confusion due to time zone crossing. See the SWA1464 flight status page for this flight to view local times or setup timezone preferences in your user account.

Time Position Orientation Groundspeed Altitude Reporting Facility
EDT Latitude Longitude Course Direction KTS MPH feet Rate Location/Type
03:27PM 27.7842 -97.5200 348° North 171 197 900  Level Houston Center
03:27PM 27.8033 -97.5244 348° North 180 207 1,700 2,520 Climbing Houston Center
03:28PM 27.8828 -97.5258 359° North 265 305 5,300 3,360 Climbing Houston Center
03:29PM 27.9414 -97.4683 41° Northeast 273 314 9,700 3,420 Climbing Houston Center
03:30PM 28.0061 -97.3850 49° Northeast 319 367 12,400 2,700 Climbing Houston Center
03:31PM 28.0828 -97.3067 42° Northeast 366 421 15,400 2,880 Climbing Houston Center
03:32PM 28.1622 -97.2250 42° Northeast 383 441 18,400 2,820 Climbing Houston Center
03:34PM 28.2475 -97.1375 42° Northeast 411 473 21,300 2,580 Climbing Houston Center
03:35PM 28.3347 -97.0464 43° Northeast 423 487 23,800 1,200 Climbing Houston Center
03:36PM 28.4244 -96.9553 42° Northeast 363 418 23,900 60 Climbing Houston Center
03:37PM 28.4944 -96.8822 43° Northeast 347 399 24,000  Climbing Houston Center
03:38PM 28.5667 -96.8139 40° Northeast 340 391 24,000  Level Houston Center
03:39PM 28.6472 -96.7789 21° North 312 359 24,000  Level Houston Center
03:40PM 28.7267 -96.7433 21° North 307 353 24,000 -180 Level Houston Center
03:41PM 28.8197 -96.7008 22° Northeast 303 349 23,700 -660 Descending Houston Center
03:42PM 28.8972 -96.6658 22° Northeast 301 346 22,700 -1,020 Descending Houston Center
03:43PM 28.9733 -96.6328 21° North 295 339 21,700 -960 Descending Houston Center
03:44PM 29.0414 -96.5914 28° Northeast 288 331 20,800 -840 Descending Houston Center
03:45PM 29.0289 -96.5000 99° East 327 376 20,000 -420 Descending Houston Center
03:46PM 28.9514 -96.5142 189° South 300 345 20,000  Level Houston Center
03:47PM 28.9633 -96.6025 279° West 242 278 20,000 -600 Level Houston Center
03:49PM 29.1369 -96.6431 348° North 329 379 18,200 -1,200 Descending Houston Center
03:50PM 29.2247 -96.6158 15° North 353 406 16,300 -1,440 Descending Houston Center
03:51PM 29.2536 -96.5081 73° East 363 418 15,300 -1,020 Descending Houston Center
03:52PM 29.2689 -96.3672 83° East 372 428 14,200 -1,020 Descending Houston Center
03:53PM 29.2733 -96.3217 84° East 379 436 13,900 -960 Descending Houston Center
03:53PM 29.2800 -96.2494 84° East 372 428 13,200 -1,140 Descending Houston Center
03:53PM 29.2853 -96.2150 80° East 371 427 12,900 -1,020 Descending Houston Center
03:54PM 29.2928 -96.1367 84° East 362 417 12,200 -600 Descending Houston Center
03:55PM 29.3103 -96.0300 79° East 352 405 11,900 -300 Descending Houston Center
03:56PM 29.3872 -95.9478 43° Northeast 355 409 11,600 -540 Descending Houston Center
03:57PM 29.4169 -95.9175 42° Northeast 350 403 11,200 -1,020 Descending Houston Center
03:57PM 29.4583 -95.8731 43° Northeast 349 402 10,600 -1,020 Descending Houston Center
03:58PM 29.4919 -95.8392 41° Northeast 352 405 10,200 -600 Descending Houston Center
03:58PM 29.5311 -95.7967 43° Northeast 352 405 10,000 -240 Descending Houston Center
03:59PM 29.5558 -95.7550 56° Northeast 353 406 10,000  Level Houston Center
03:59PM 29.5722 -95.6706 77° East 361 415 10,000  Level Houston Center
04:00PM 29.5794 -95.6417 74° East 345 397 10,000 -1,020 Level Houston Center
04:00PM 29.5933 -95.5719 77° East 324 373 9,000 -1,500 Descending Houston Center
04:01PM 29.6125 -95.4822 76° East 296 341 7,300 -1,800 Descending Houston Center
04:02PM 29.6189 -95.4522 76° East 291 335 6,700 -1,260 Descending Houston Center
04:03PM 29.6258 -95.3922 82° East 289 333 6,000 -420 Descending Houston Center
04:04PM 29.5661 -95.3119 131° Southeast 256 295 6,000 -300 Level Houston Center
04:05PM 29.5200 -95.2594 135° Southeast 260 299 5,400 -720 Descending Houston Center
04:06PM 29.4764 -95.2061 133° Southeast 240 276 4,700 -780 Descending Houston Center
04:07PM 29.4825 -95.1458 83° East 211 243 3,800 -900 Descending Houston Center
04:09PM 29.5792 -95.2022 333° Northwest 166 191 1,800 -900 Descending Houston Center
04:10PM 29.5994 -95.2256 315° West 166 191 1,100 -840 Descending Houston Center
04:11PM 29.6308 -95.2633 314° West 128 147 200 -540 Descending Houston Center
04:12PM 29.6550 -95.2892 317° Northwest 139 160 100 -120 Descending Houston Center